createdAt,value
2019-04-27T00:01:40.623Z,63.29
2019-04-27T00:04:16.271Z,63.50
2019-04-27T00:06:46.597Z,63.26
2019-04-27T00:09:18.997Z,63.40
2019-04-27T00:11:53.117Z,63.58
2019-04-27T00:14:27.553Z,63.75
2019-04-27T00:16:59.800Z,63.94
2019-04-27T00:19:35.251Z,64.17
2019-04-27T00:22:06.013Z,64.43
2019-04-27T00:24:40.402Z,64.29
2019-04-27T00:27:13.449Z,64.25
2019-04-27T00:29:46.024Z,64.31
2019-04-27T00:32:18.256Z,64.29
2019-04-27T00:34:50.685Z,64.48
2019-04-27T00:37:23.726Z,64.41
2019-04-27T00:39:56.358Z,64.55
2019-04-27T00:42:28.792Z,64.67
2019-04-27T00:45:03.308Z,64.99
2019-04-27T00:47:36.231Z,65.11
2019-04-27T00:50:08.717Z,65.06
2019-04-27T00:52:42.646Z,64.98
2019-04-27T00:55:15.247Z,64.94
2019-04-27T00:57:47.504Z,65.03
2019-04-27T01:00:19.739Z,65.09
2019-04-27T01:02:53.649Z,65.11
2019-04-27T01:05:25.951Z,65.43
2019-04-27T01:07:58.184Z,65.29
2019-04-27T01:10:30.446Z,65.36
2019-04-27T01:13:03.283Z,65.51
2019-04-27T01:15:36.763Z,65.44
2019-04-27T01:18:14.968Z,65.57
2019-04-27T01:20:45.286Z,65.84
2019-04-27T01:23:19.231Z,66.00
2019-04-27T01:25:51.546Z,65.85
2019-04-27T01:28:23.974Z,66.14
2019-04-27T01:30:56.173Z,66.31
2019-04-27T01:33:30.280Z,66.25
2019-04-27T01:36:03.666Z,65.95
2019-04-27T01:38:35.934Z,65.51
2019-04-27T01:41:08.958Z,65.11
2019-04-27T01:43:42.391Z,64.96
2019-04-27T01:46:14.625Z,64.78
2019-04-27T01:48:46.891Z,64.72
2019-04-27T01:51:21.043Z,64.41
2019-04-27T01:53:53.099Z,64.36
2019-04-27T01:56:25.170Z,64.38
2019-04-27T01:58:57.474Z,64.17
2019-04-27T02:01:29.724Z,63.81
2019-04-27T02:04:01.942Z,63.58
2019-04-27T02:06:36.530Z,63.57
2019-04-27T02:09:09.807Z,63.26
2019-04-27T02:11:43.823Z,63.72
2019-04-27T02:14:16.095Z,63.42
2019-04-27T02:16:49.261Z,63.09
2019-04-27T02:19:22.730Z,62.86
2019-04-27T02:21:54.978Z,62.76
2019-04-27T02:24:28.814Z,62.54
2019-04-27T02:27:01.248Z,62.54
2019-04-27T02:29:33.448Z,62.33
2019-04-27T02:32:05.687Z,62.38
2019-04-27T02:34:39.886Z,62.32
2019-04-27T02:37:12.016Z,62.38
2019-04-27T02:39:44.295Z,62.11
2019-04-27T02:42:16.529Z,62.38
2019-04-27T02:44:49.549Z,62.35
2019-04-27T02:47:21.912Z,62.47
2019-04-27T02:49:54.132Z,62.22
2019-04-27T02:52:26.365Z,62.23
2019-04-27T02:54:59.328Z,62.17
2019-04-27T02:57:32.230Z,62.57
2019-04-27T03:00:04.489Z,62.50
2019-04-27T03:02:39.497Z,62.57
2019-04-27T03:05:13.126Z,62.92
2019-04-27T03:07:45.563Z,63.71
2019-04-27T03:10:19.848Z,63.50
2019-04-27T03:12:51.803Z,63.62
2019-04-27T03:15:24.021Z,63.93
2019-04-27T03:17:56.227Z,64.17
2019-04-27T03:20:30.098Z,65.15
2019-04-27T03:23:02.607Z,64.52
2019-04-27T03:25:35.059Z,64.87
2019-04-27T03:28:07.259Z,64.70
2019-04-27T03:30:42.365Z,64.41
2019-04-27T03:33:13.523Z,64.01
2019-04-27T03:35:45.768Z,64.11
2019-04-27T03:38:19.703Z,64.04
2019-04-27T03:40:53.031Z,63.60
2019-04-27T03:43:25.650Z,64.04
2019-04-27T03:46:00.351Z,63.77
2019-04-27T03:48:31.966Z,63.89
2019-04-27T03:51:04.214Z,63.19
2019-04-27T03:53:36.457Z,63.30
2019-04-27T03:56:10.158Z,63.41
2019-04-27T03:58:42.581Z,63.42
2019-04-27T04:01:14.802Z,63.20
2019-04-27T04:03:49.692Z,63.15
2019-04-27T04:06:21.179Z,63.26
2019-04-27T04:08:55.245Z,63.44
2019-04-27T04:11:30.292Z,63.23
2019-04-27T04:14:01.542Z,63.25
2019-04-27T04:16:33.768Z,63.48
2019-04-27T04:19:06.015Z,63.25
2019-04-27T04:21:40.047Z,63.47
2019-04-27T04:24:12.595Z,63.83
2019-04-27T04:26:44.836Z,63.56
2019-04-27T04:29:17.112Z,63.74
2019-04-27T04:31:50.346Z,64.06
2019-04-27T04:34:22.961Z,64.57
2019-04-27T04:36:55.182Z,64.79
2019-04-27T04:39:29.603Z,65.26
2019-04-27T04:42:01.460Z,65.86
2019-04-27T04:44:33.709Z,66.07
2019-04-27T04:47:05.941Z,66.78
2019-04-27T04:49:39.746Z,66.96
2019-04-27T04:52:11.947Z,67.40
2019-04-27T04:54:44.189Z,67.61
2019-04-27T04:57:16.412Z,67.99
2019-04-27T04:59:51.726Z,68.34
2019-04-27T05:02:23.967Z,69.02
2019-04-27T05:04:56.207Z,69.56
2019-04-27T05:07:29.688Z,70.74
2019-04-27T05:10:02.042Z,71.69
2019-04-27T05:12:34.262Z,71.79
2019-04-27T05:15:06.631Z,72.18
2019-04-27T05:17:39.894Z,72.67
2019-04-27T05:20:22.303Z,73.08
2019-04-27T05:22:46.225Z,73.05
2019-04-27T05:25:18.695Z,72.99
2019-04-27T05:27:51.304Z,73.22
2019-04-27T05:30:23.600Z,73.01
2019-04-27T05:32:55.837Z,73.12
2019-04-27T05:35:29.726Z,73.49
2019-04-27T05:38:07.460Z,73.79
2019-04-27T05:40:36.262Z,74.09
2019-04-27T05:43:09.106Z,73.64
2019-04-27T05:45:41.492Z,73.40
2019-04-27T05:48:13.764Z,73.78
2019-04-27T05:50:51.534Z,74.80
2019-04-27T05:53:21.062Z,75.32
2019-04-27T05:55:53.628Z,75.24
2019-04-27T05:58:26.298Z,75.36
2019-04-27T06:00:59.510Z,75.80
2019-04-27T06:03:32.095Z,75.87
2019-04-27T06:06:04.363Z,75.73
2019-04-27T06:08:36.583Z,75.44
2019-04-27T06:11:09.422Z,76.13
2019-04-27T06:13:41.935Z,76.01
2019-04-27T06:16:14.219Z,76.87
2019-04-27T06:18:46.411Z,76.82
2019-04-27T06:21:19.568Z,75.48
2019-04-27T06:23:51.969Z,74.63
2019-04-27T06:26:24.221Z,74.68
2019-04-27T06:28:56.458Z,75.62
2019-04-27T06:31:29.726Z,75.38
2019-04-27T06:34:02.078Z,75.12
2019-04-27T06:36:34.521Z,74.40
2019-04-27T06:39:06.785Z,75.62
2019-04-27T06:41:39.983Z,75.21
2019-04-27T06:44:15.635Z,75.57
2019-04-27T06:46:48.985Z,76.19
2019-04-27T06:49:21.431Z,76.75
2019-04-27T06:51:53.723Z,76.40
2019-04-27T06:54:25.969Z,75.64
2019-04-27T06:56:59.270Z,75.88
2019-04-27T06:59:31.773Z,75.75
2019-04-27T07:02:03.982Z,74.30
2019-04-27T07:04:36.270Z,73.74
2019-04-27T07:07:09.734Z,75.52
2019-04-27T07:09:42.108Z,74.35
2019-04-27T07:12:14.303Z,74.92
2019-04-27T07:14:54.342Z,74.98
2019-04-27T07:17:20.594Z,75.74
2019-04-27T07:19:52.880Z,75.60
2019-04-27T07:22:26.219Z,75.27
2019-04-27T07:24:59.082Z,72.22
2019-04-27T07:27:31.397Z,73.76
2019-04-27T07:30:03.627Z,71.01
2019-04-27T07:32:36.095Z,70.39
2019-04-27T07:35:10.330Z,71.32
2019-04-27T07:37:42.580Z,70.90
2019-04-27T07:40:14.958Z,71.23
2019-04-27T07:42:47.272Z,70.00
2019-04-27T07:45:19.633Z,69.36
2019-04-27T07:47:51.836Z,69.47
2019-04-27T07:50:24.175Z,69.32
2019-04-27T07:52:56.470Z,68.86
2019-04-27T07:55:28.928Z,68.31
2019-04-27T07:58:01.414Z,66.59
2019-04-27T08:00:34.712Z,65.58
2019-04-27T08:03:07.085Z,64.25
2019-04-27T08:05:39.782Z,63.94
2019-04-27T08:08:12.186Z,63.89
2019-04-27T08:10:44.490Z,62.03
2019-04-27T08:13:16.758Z,61.05
2019-04-27T08:15:49.619Z,61.34
2019-04-27T08:18:22.112Z,61.49
2019-04-27T08:20:57.532Z,60.65
2019-04-27T08:23:31.205Z,61.16
2019-04-27T08:26:03.445Z,62.17
2019-04-27T08:28:35.700Z,61.52
2019-04-27T08:31:08.905Z,61.17
2019-04-27T08:33:41.274Z,59.82
2019-04-27T08:36:13.417Z,59.93
2019-04-27T08:38:45.730Z,58.62
2019-04-27T08:41:19.666Z,59.26
2019-04-27T08:43:52.001Z,59.08
2019-04-27T08:46:24.213Z,57.43
2019-04-27T08:48:56.591Z,56.29
2019-04-27T08:51:29.164Z,55.90
2019-04-27T08:54:01.390Z,56.25
2019-04-27T08:56:33.979Z,56.73
2019-04-27T08:59:06.243Z,55.09
2019-04-27T09:01:39.739Z,56.09
2019-04-27T09:04:12.132Z,54.04
2019-04-27T09:06:44.387Z,55.23
2019-04-27T09:09:16.596Z,54.44
2019-04-27T09:11:49.370Z,54.03
2019-04-27T09:14:22.942Z,53.26
2019-04-27T09:17:00.282Z,52.36
2019-04-27T09:19:29.687Z,52.68
2019-04-27T09:22:12.699Z,51.55
2019-04-27T09:24:36.031Z,51.77
2019-04-27T09:27:09.642Z,53.20
2019-04-27T09:29:42.107Z,54.28
2019-04-27T09:32:14.444Z,52.82
2019-04-27T09:34:46.874Z,51.81
2019-04-27T09:37:19.093Z,51.11
2019-04-27T09:39:51.467Z,51.59
2019-04-27T09:42:23.892Z,51.09
2019-04-27T09:44:56.205Z,50.08
2019-04-27T09:47:30.753Z,50.96
2019-04-27T09:50:03.173Z,50.49
2019-04-27T09:52:36.053Z,50.16
2019-04-27T09:55:08.610Z,50.61
2019-04-27T09:57:41.003Z,48.90
2019-04-27T10:00:13.141Z,49.33
2019-04-27T10:02:46.605Z,47.13
2019-04-27T10:05:19.013Z,48.12
2019-04-27T10:07:51.312Z,45.71
2019-04-27T10:10:23.564Z,48.41
2019-04-27T10:12:56.794Z,46.60
2019-04-27T10:15:29.352Z,46.03
2019-04-27T10:18:01.707Z,45.63
2019-04-27T10:20:38.442Z,46.22
2019-04-27T10:23:08.183Z,45.53
2019-04-27T10:25:40.380Z,45.26
2019-04-27T10:28:12.621Z,45.98
2019-04-27T10:30:45.791Z,46.48
2019-04-27T10:33:18.102Z,45.46
2019-04-27T10:35:50.580Z,46.24
2019-04-27T10:38:22.912Z,45.62
2019-04-27T10:40:55.145Z,45.37
2019-04-27T10:43:29.527Z,44.89
2019-04-27T10:46:01.901Z,45.56
2019-04-27T10:48:34.195Z,47.48
2019-04-27T10:51:07.394Z,49.08
2019-04-27T10:53:39.765Z,47.85
2019-04-27T10:56:12.094Z,47.65
2019-04-27T10:58:45.691Z,46.61
2019-04-27T11:01:18.187Z,46.07
2019-04-27T11:03:50.390Z,45.94
2019-04-27T11:06:23.697Z,46.57
2019-04-27T11:08:56.187Z,46.78
2019-04-27T11:11:28.581Z,46.09
2019-04-27T11:14:01.260Z,44.35
2019-04-27T11:16:35.694Z,45.16
2019-04-27T11:19:08.597Z,45.95
2019-04-27T11:21:40.849Z,43.25
2019-04-27T11:24:13.055Z,43.77
2019-04-27T11:26:46.538Z,48.93
2019-04-27T11:29:19.020Z,57.17
2019-04-27T11:31:51.249Z,60.27
2019-04-27T11:34:23.574Z,62.80
2019-04-27T11:36:56.007Z,60.27
2019-04-27T11:39:28.603Z,62.45
2019-04-27T11:42:00.902Z,63.63
2019-04-27T11:44:33.120Z,62.91
2019-04-27T11:47:06.036Z,63.34
2019-04-27T11:49:38.639Z,63.14
2019-04-27T11:52:10.901Z,64.12
2019-04-27T11:54:43.227Z,64.68
2019-04-27T11:57:15.520Z,67.00
2019-04-27T11:59:47.887Z,64.50
2019-04-27T12:02:20.278Z,60.52
2019-04-27T12:04:52.522Z,62.85
2019-04-27T12:07:24.843Z,58.38
2019-04-27T12:09:57.074Z,59.02
2019-04-27T12:12:29.164Z,59.10
2019-04-27T12:15:01.381Z,55.65
2019-04-27T12:17:33.788Z,55.97
2019-04-27T12:20:06.563Z,56.37
2019-04-27T12:22:38.769Z,56.28
2019-04-27T12:25:11.000Z,53.83
2019-04-27T12:27:43.305Z,52.87
2019-04-27T12:30:16.240Z,54.52
2019-04-27T12:32:48.707Z,55.47
2019-04-27T12:35:20.924Z,55.98
2019-04-27T12:37:53.185Z,51.96
2019-04-27T12:40:26.847Z,50.44
2019-04-27T12:42:59.246Z,45.22
2019-04-27T12:45:33.854Z,46.43
2019-04-27T12:48:06.092Z,50.31
2019-04-27T12:50:38.521Z,50.38
2019-04-27T12:53:10.782Z,51.54
2019-04-27T12:55:43.057Z,51.83
2019-04-27T12:58:16.441Z,48.21
2019-04-27T13:00:48.967Z,44.30
2019-04-27T13:03:21.223Z,38.30
2019-04-27T13:05:53.787Z,35.04
2019-04-27T13:08:26.180Z,35.43
2019-04-27T13:10:58.734Z,35.20
2019-04-27T13:13:31.713Z,38.11
2019-04-27T13:16:03.996Z,39.70
2019-04-27T13:18:36.204Z,42.27
2019-04-27T13:21:08.380Z,46.45
2019-04-27T13:23:40.703Z,47.48
2019-04-27T13:26:12.944Z,50.21
2019-04-27T13:28:46.592Z,49.43
2019-04-27T13:31:19.154Z,51.56
2019-04-27T13:33:51.432Z,49.06
2019-04-27T13:36:26.574Z,48.77
2019-04-27T13:38:59.064Z,48.34
2019-04-27T13:41:32.915Z,49.77
2019-04-27T13:44:06.569Z,49.93
2019-04-27T13:46:40.355Z,50.24
2019-04-27T13:49:12.619Z,51.40
2019-04-27T13:51:45.069Z,50.61
2019-04-27T13:54:25.350Z,50.88
2019-04-27T13:56:51.426Z,52.59
2019-04-27T13:59:23.542Z,50.63
2019-04-27T14:01:55.785Z,50.77
2019-04-27T14:04:28.080Z,52.28
2019-04-27T14:07:00.280Z,50.79
2019-04-27T14:09:32.832Z,51.11
2019-04-27T14:12:05.085Z,50.94
2019-04-27T14:14:38.978Z,50.25
2019-04-27T14:17:11.286Z,49.27
2019-04-27T14:19:43.753Z,50.51
2019-04-27T14:22:18.118Z,51.57
2019-04-27T14:24:50.451Z,51.71
2019-04-27T14:27:22.639Z,50.50
2019-04-27T14:29:57.163Z,52.38
2019-04-27T14:32:28.916Z,51.97
2019-04-27T14:35:01.264Z,51.89
2019-04-27T14:37:33.512Z,51.92
2019-04-27T14:40:08.469Z,52.09
2019-04-27T14:42:41.260Z,52.56
2019-04-27T14:45:13.392Z,52.88
2019-04-27T14:47:45.906Z,52.10
2019-04-27T14:50:19.191Z,52.63
2019-04-27T14:52:51.459Z,50.38
2019-04-27T14:55:24.096Z,51.71
2019-04-27T14:57:56.358Z,52.37
2019-04-27T15:00:30.504Z,53.18
2019-04-27T15:03:02.732Z,52.92
2019-04-27T15:05:34.926Z,53.00
2019-04-27T15:08:09.695Z,53.21
2019-04-27T15:10:41.270Z,53.21
2019-04-27T15:13:13.566Z,55.19
2019-04-27T15:15:45.776Z,53.52
2019-04-27T15:18:19.766Z,53.87
2019-04-27T15:20:52.185Z,54.50
2019-04-27T15:23:26.638Z,54.91
2019-04-27T15:26:00.022Z,57.00
2019-04-27T15:28:32.477Z,59.53
2019-04-27T15:31:04.918Z,60.98
2019-04-27T15:33:38.801Z,62.51
2019-04-27T15:36:14.579Z,62.31
2019-04-27T15:38:47.773Z,62.80
2019-04-27T15:41:19.562Z,61.61
2019-04-27T15:43:52.053Z,60.29
2019-04-27T15:46:27.872Z,59.58
2019-04-27T15:48:58.957Z,61.82
2019-04-27T15:51:31.235Z,60.17
2019-04-27T15:54:03.707Z,59.78
2019-04-27T15:56:36.976Z,59.45
2019-04-27T15:59:09.429Z,58.55
2019-04-27T16:01:41.701Z,58.08
2019-04-27T16:04:13.999Z,58.02
2019-04-27T16:06:48.727Z,58.08
2019-04-27T16:09:25.367Z,59.39
2019-04-27T16:12:03.754Z,61.83
2019-04-27T16:14:29.199Z,64.21
2019-04-27T16:17:03.121Z,64.56
2019-04-27T16:19:35.603Z,64.27
2019-04-27T16:22:08.112Z,64.61
2019-04-27T16:24:40.348Z,68.07
2019-04-27T16:27:12.727Z,67.29
2019-04-27T16:29:44.963Z,67.29
2019-04-27T16:32:17.302Z,66.95
2019-04-27T16:34:49.616Z,66.72
2019-04-27T16:37:22.537Z,67.06
2019-04-27T16:39:54.924Z,66.58
2019-04-27T16:42:28.714Z,66.00
2019-04-27T16:45:02.478Z,65.84
2019-04-27T16:47:35.172Z,67.17
2019-04-27T16:50:08.340Z,65.32
2019-04-27T16:52:40.647Z,65.46
2019-04-27T16:55:17.485Z,66.01
2019-04-27T16:57:49.074Z,64.34
2019-04-27T17:00:22.713Z,63.25
2019-04-27T17:02:59.863Z,63.68
2019-04-27T17:05:34.473Z,62.59
2019-04-27T17:08:03.303Z,62.73
2019-04-27T17:10:35.631Z,61.72
2019-04-27T17:13:13.315Z,62.69
2019-04-27T17:15:46.016Z,63.28
2019-04-27T17:18:19.985Z,63.11
2019-04-27T17:20:52.727Z,64.06
2019-04-27T17:23:26.126Z,64.14
2019-04-27T17:26:04.475Z,65.97
2019-04-27T17:28:33.445Z,67.19
2019-04-27T17:31:06.305Z,68.42
2019-04-27T17:33:38.526Z,68.71
2019-04-27T17:36:12.126Z,68.97
2019-04-27T17:38:47.267Z,68.22
2019-04-27T17:41:18.694Z,67.31
2019-04-27T17:43:50.974Z,68.75
2019-04-27T17:46:23.235Z,65.92
2019-04-27T17:48:55.469Z,65.90
2019-04-27T17:51:28.572Z,66.09
2019-04-27T17:54:08.083Z,65.31
2019-04-27T17:56:48.158Z,65.33
2019-04-27T17:59:17.383Z,64.68
2019-04-27T18:01:49.475Z,64.25
2019-04-27T18:04:21.660Z,62.41
2019-04-27T18:06:55.532Z,61.68
2019-04-27T18:09:29.035Z,62.89
2019-04-27T18:12:01.458Z,61.76
2019-04-27T18:14:39.472Z,61.31
2019-04-27T18:17:11.828Z,63.42
2019-04-27T18:19:44.273Z,65.42
2019-04-27T18:22:15.594Z,65.51
2019-04-27T18:24:47.820Z,62.18
2019-04-27T18:27:20.091Z,63.27
2019-04-27T18:29:52.370Z,63.99
2019-04-27T18:32:27.690Z,63.82
2019-04-27T18:35:00.306Z,65.37
2019-04-27T18:37:32.914Z,63.68
2019-04-27T18:40:05.174Z,64.11
2019-04-27T18:42:38.528Z,64.90
2019-04-27T18:45:11.068Z,64.29
2019-04-27T18:47:43.386Z,66.44
2019-04-27T18:50:15.733Z,67.10
2019-04-27T18:52:50.212Z,64.14
2019-04-27T18:55:22.302Z,63.67
2019-04-27T18:57:54.655Z,64.78
2019-04-27T19:00:27.691Z,64.92
2019-04-27T19:03:01.302Z,66.41
2019-04-27T19:05:40.088Z,63.66
2019-04-27T19:08:07.578Z,64.59
2019-04-27T19:10:39.787Z,65.58
2019-04-27T19:13:13.113Z,62.39
2019-04-27T19:15:45.626Z,64.76
2019-04-27T19:18:18.858Z,61.75
2019-04-27T19:20:51.223Z,62.17
2019-04-27T19:23:23.565Z,62.14
2019-04-27T19:25:55.787Z,60.96
2019-04-27T19:28:30.637Z,60.77
2019-04-27T19:31:02.327Z,61.56
2019-04-27T19:33:34.794Z,61.00
2019-04-27T19:36:08.746Z,59.70
2019-04-27T19:38:41.050Z,59.83
2019-04-27T19:41:13.291Z,59.87
2019-04-27T19:43:45.625Z,58.95
2019-04-27T19:46:19.824Z,58.88
2019-04-27T19:48:51.925Z,59.01
2019-04-27T19:51:24.443Z,59.53
2019-04-27T19:53:58.184Z,59.09
2019-04-27T19:56:30.705Z,58.70
2019-04-27T19:59:03.019Z,59.18
2019-04-27T20:01:35.235Z,59.86
2019-04-27T20:04:08.604Z,60.26
2019-04-27T20:06:41.156Z,60.19
2019-04-27T20:09:13.467Z,59.69
2019-04-27T20:11:46.114Z,58.84
2019-04-27T20:14:18.398Z,59.57
2019-04-27T20:16:53.319Z,59.68
2019-04-27T20:19:25.683Z,60.42
2019-04-27T20:21:57.919Z,60.91
2019-04-27T20:24:31.405Z,64.17
2019-04-27T20:27:04.432Z,64.75
2019-04-27T20:29:36.805Z,65.89
2019-04-27T20:32:11.332Z,66.50
2019-04-27T20:34:43.284Z,66.69
2019-04-27T20:37:15.384Z,68.38
2019-04-27T20:39:48.674Z,68.74
2019-04-27T20:42:21.336Z,69.73
2019-04-27T20:44:53.650Z,70.19
2019-04-27T20:47:27.935Z,70.37
2019-04-27T20:50:00.215Z,69.68
2019-04-27T20:52:32.406Z,69.28
2019-04-27T20:55:04.621Z,69.80
2019-04-27T20:57:36.902Z,69.39
2019-04-27T21:00:09.184Z,69.67
2019-04-27T21:02:43.129Z,70.06
2019-04-27T21:05:15.344Z,70.43
2019-04-27T21:07:47.638Z,69.58
2019-04-27T21:10:20.146Z,70.14
2019-04-27T21:12:52.386Z,70.45
2019-04-27T21:15:24.597Z,70.31
2019-04-27T21:17:56.850Z,70.28
2019-04-27T21:20:30.831Z,69.65
2019-04-27T21:23:03.076Z,70.09
2019-04-27T21:25:35.295Z,70.22
2019-04-27T21:28:16.466Z,69.60
2019-04-27T21:30:41.444Z,70.19
2019-04-27T21:33:13.692Z,70.54
2019-04-27T21:35:45.945Z,70.81
2019-04-27T21:38:18.417Z,70.43
2019-04-27T21:40:50.662Z,71.47
2019-04-27T21:43:22.860Z,72.03
2019-04-27T21:45:55.101Z,70.81
2019-04-27T21:48:27.312Z,70.43
2019-04-27T21:51:01.069Z,70.71
2019-04-27T21:53:33.732Z,70.65
2019-04-27T21:56:05.838Z,70.45
2019-04-27T21:58:38.075Z,69.38
2019-04-27T22:01:11.587Z,69.63
2019-04-27T22:03:45.837Z,69.43
2019-04-27T22:06:18.170Z,70.11
2019-04-27T22:08:51.180Z,69.42
2019-04-27T22:11:23.547Z,69.42
2019-04-27T22:13:55.899Z,68.44
2019-04-27T22:16:28.313Z,68.92
2019-04-27T22:19:01.929Z,69.34
2019-04-27T22:21:34.430Z,70.45
2019-04-27T22:24:06.727Z,70.71
2019-04-27T22:26:39.314Z,71.44
2019-04-27T22:29:12.052Z,72.78
2019-04-27T22:31:44.635Z,73.80
2019-04-27T22:34:16.893Z,73.36
2019-04-27T22:36:49.247Z,73.75
2019-04-27T22:39:21.465Z,74.15
2019-04-27T22:41:53.705Z,74.47
2019-04-27T22:44:25.938Z,74.52
2019-04-27T22:46:58.212Z,74.86
2019-04-27T22:49:31.290Z,73.93
2019-04-27T22:52:03.666Z,74.21
2019-04-27T22:54:35.912Z,73.89
2019-04-27T22:57:08.157Z,72.79
2019-04-27T22:59:41.429Z,73.50
2019-04-27T23:02:13.727Z,74.42
2019-04-27T23:04:45.965Z,74.98
2019-04-27T23:07:18.176Z,75.48
2019-04-27T23:09:51.649Z,75.11
2019-04-27T23:12:24.061Z,74.80
2019-04-27T23:14:56.364Z,74.88
2019-04-27T23:17:28.604Z,74.32
2019-04-27T23:20:01.322Z,74.92
2019-04-27T23:22:33.934Z,74.57
2019-04-27T23:25:06.211Z,75.17
2019-04-27T23:27:38.449Z,75.98
2019-04-27T23:30:11.409Z,76.52
2019-04-27T23:32:43.768Z,76.95
2019-04-27T23:35:16.087Z,76.57
2019-04-27T23:37:50.759Z,76.88
2019-04-27T23:40:23.470Z,76.96
2019-04-27T23:42:55.674Z,76.99
2019-04-27T23:45:28.216Z,77.13
2019-04-27T23:48:00.435Z,77.52
2019-04-27T23:50:32.666Z,77.59
2019-04-27T23:53:04.876Z,77.24
2019-04-27T23:55:37.118Z,77.50
2019-04-27T23:58:09.477Z,77.55
